Stations météo

réclame
Mon MeteoGroup
Hallands Vaderö, Suède (2605): Température de l'air & dewpoint: 19.04.2018 14:00:00 - 25.04.2018 14:00:00 (CEST)Hallands Vaderö, Suède (2605): Vitesse du vent & gusts: 19.04.2018 14:00:00 - 25.04.2018 14:00:00 (CEST)Hallands Vaderö, Suède (2605): Direction du vent: 19.04.2018 14:00:00 - 25.04.2018 14:00:00 (CEST)Hallands Vaderö, Suède (2605): visibility: 19.04.2018 14:00:00 - 25.04.2018 14:00:00 (CEST)Hallands Vaderö, Suède (2605): Quantités de précipitations: 19.04.2018 14:00:00 - 25.04.2018 14:00:00 (CEST)
Date & Time tt [°C] td [°C] ff [km/h] ff [knt] fx [km/h] fx [knt] dd vv [km] rr [mm]
25.04.2018 14:00:00 10,0 7,3 21 11 27 14 W 17 0,0
25.04.2018 13:00:00 - - - - - - - - -
25.04.2018 12:00:00 8,0 8,0 15 8 20 11 W 13 0,1
25.04.2018 11:00:00 8,1 8,1 15 8 23 12 W 8 0,4
25.04.2018 10:00:00 7,2 7,2 16 9 28 15 WSW 9 0,1
25.04.2018 09:00:00 7,3 7,3 18 10 29 16 WSW 8 0,4
25.04.2018 08:00:00 7,2 7,2 23 12 31 17 WSW 7 0,2
25.04.2018 07:00:00 - - - - 35 19 - - -
25.04.2018 06:00:00 7,2 7,2 27 15 35 19 SW 9 0,0
25.04.2018 05:00:00 7,2 7,2 27 15 40 22 WSW 9 0,0
25.04.2018 04:00:00 7,2 7,2 29 15 41 22 WSW 9 0,0
25.04.2018 03:00:00 7,2 7,2 31 17 47 25 WSW 9 0,0
25.04.2018 02:00:00 7,5 6,3 32 17 50 27 WSW 11 0,0
25.04.2018 01:00:00 7,7 5,7 39 21 50 27 WSW 11 0,0
25.04.2018 00:00:00 8,0 6,0 39 21 49 27 WSW 13 0,0
24.04.2018 23:00:00 8,0 6,5 29 16 37 20 WSW 14 0,0
24.04.2018 22:00:00 7,8 6,9 24 13 41 22 SW 11 0,0
24.04.2018 21:00:00 8,2 5,1 32 17 41 22 W 12 0,0
24.04.2018 20:00:00 8,6 5,7 24 13 43 23 WSW 14 0,0
24.04.2018 19:00:00 8,8 6,2 28 15 53 29 WSW 11 0,0
24.04.2018 18:00:00 9,2 6,5 35 19 53 29 WSW 12 0,0
24.04.2018 17:00:00 9,0 7,1 40 22 51 28 WSW 11 0,0
24.04.2018 16:00:00 - - - - 54 29 - - -
24.04.2018 15:00:00 9,8 7,4 43 23 59 32 SW 9 0,0
24.04.2018 14:00:00 10,0 8,4 44 24 59 32 SW 8 0,0
24.04.2018 13:00:00 9,7 9,7 48 26 59 32 SW 8 0,0
24.04.2018 12:00:00 9,1 9,1 41 22 51 28 SW 7 0,0
24.04.2018 11:00:00 8,8 8,8 31 17 41 22 SSW 4,2 0,2
24.04.2018 10:00:00 8,3 8,3 31 17 40 21 S 6 0,3
24.04.2018 09:00:00 7,6 7,6 24 13 39 21 S 4,2 0,1
24.04.2018 08:00:00 7,6 7,6 25 14 44 24 SW 6 0,0
24.04.2018 07:00:00 7,6 7,6 33 18 44 24 SW 7 0,3
24.04.2018 06:00:00 7,7 7,7 33 18 42 23 SW 9 0,0
24.04.2018 05:00:00 7,6 7,6 34 18 42 23 SW 8 0,0
24.04.2018 04:00:00 7,6 7,6 28 15 36 19 SW 8 0,0
24.04.2018 03:00:00 7,8 7,2 25 14 42 23 WSW 11 0,0
24.04.2018 02:00:00 8,0 7,1 27 14 42 23 WSW 12 0,0
24.04.2018 01:00:00 8,3 7,1 32 18 40 22 WSW 14 0,0
24.04.2018 00:00:00 8,1 7,3 33 18 42 23 WSW 12 0,0
23.04.2018 23:00:00 - - - - 43 23 - - -
23.04.2018 22:00:00 8,9 6,5 33 18 43 23 WSW 20 0,0
23.04.2018 21:00:00 8,6 6,7 29 16 43 23 WSW 19 0,0
23.04.2018 20:00:00 9,1 6,7 35 19 46 25 WSW 19 0,0
23.04.2018 19:00:00 9,7 6,6 32 18 46 25 WSW 19 0,0
23.04.2018 18:00:00 10,2 6,7 38 20 43 23 SW 24 0,0
23.04.2018 17:00:00 10,3 6,8 27 15 31 17 SW 28 0,0
23.04.2018 16:00:00 11,6 7,3 16 9 24 13 WSW 19 0,0
23.04.2018 15:00:00 11,2 8,2 13 7 29 16 SW 16 0,0
23.04.2018 14:00:00 10,8 7,9 21 11 29 16 SW 10 0,0
23.04.2018 13:00:00 11,0 8,7 19 11 35 19 SW 8 0,0
23.04.2018 12:00:00 10,0 9,1 22 12 35 19 W 6 0,0
23.04.2018 11:00:00 10,0 9,7 26 14 42 23 SW 7 0,0
23.04.2018 10:00:00 9,5 7,3 25 14 46 25 SSE 26 0,0
23.04.2018 09:00:00 8,9 7,5 29 16 47 26 SSE 23 0,2
23.04.2018 08:00:00 - - - - 48 26 - - -
23.04.2018 07:00:00 8,3 4,5 31 17 48 26 SE 29 0,0
23.04.2018 06:00:00 8,6 5,9 23 13 46 25 SE 21 0,3
23.04.2018 05:00:00 7,5 5,1 29 15 46 25 SE 8 1,0
23.04.2018 04:00:00 8,3 3,7 21 12 38 21 SE 27 0,0
23.04.2018 03:00:00 8,0 3,6 20 11 41 22 SE 35 0,0
23.04.2018 02:00:00 8,3 4,3 24 13 41 22 SE 36 0,0
23.04.2018 01:00:00 9,2 3,8 23 12 35 19 SE 45 0,0
23.04.2018 00:00:00 9,7 3,4 16 9 26 14 SE 47 0,0
22.04.2018 23:00:00 9,6 2,9 12 7 18 10 SE 48 0,0
22.04.2018 22:00:00 - - - - 11 6 - - -
22.04.2018 21:00:00 8,9 6,5 8 4 16 9 E 24 0,0
22.04.2018 20:00:00 - - - - 17 9 - - -
22.04.2018 19:00:00 8,4 6,4 11 6 17 9 ENE 16 0,0
22.04.2018 18:00:00 8,0 5,6 10 6 14 7 ENE 15 0,0
22.04.2018 17:00:00 - - - - 11 6 - - -
22.04.2018 16:00:00 7,6 5,6 5 3 10 6 NNW 12 0,0
22.04.2018 15:00:00 - - - - 10 6 - - -
22.04.2018 14:00:00 - - - - 11 6 - - -
22.04.2018 13:00:00 - - - - 12 6 - - -
22.04.2018 12:00:00 6,6 5,5 4 2 13 7 WSW 11 0,0
22.04.2018 11:00:00 6,4 5,8 5 3 13 7 WSW 10 0,0
22.04.2018 10:00:00 6,3 6,0 4 2 16 9 NW 9 0,0
22.04.2018 09:00:00 6,0 6,0 6 3 16 9 W 10 0,0
22.04.2018 08:00:00 5,8 5,8 6 4 16 8 WNW 9 0,0
22.04.2018 07:00:00 5,6 5,6 4 2 18 10 NNW 9 0,0
22.04.2018 06:00:00 6,2 6,2 10 5 27 15 NW 11 0,0
22.04.2018 05:00:00 6,5 6,4 14 8 27 15 NNW 14 0,0
22.04.2018 04:00:00 6,6 6,6 18 10 25 13 NW 14 0,0
22.04.2018 03:00:00 6,5 6,5 13 7 25 14 NW 16 0,0
22.04.2018 02:00:00 6,9 6,5 15 8 25 14 WNW 19 0,0
22.04.2018 01:00:00 7,0 6,3 14 7 25 13 WNW 22 0,0
22.04.2018 00:00:00 7,5 6,1 18 10 25 13 WNW 24 0,0
21.04.2018 23:00:00 7,0 5,3 6 4 12 7 W 34 0,0
21.04.2018 22:00:00 7,3 5,9 7 4 14 8 W 33 0,0
21.04.2018 21:00:00 7,6 6,2 9 5 17 9 W 25 0,0
21.04.2018 20:00:00 9,1 5,8 10 6 23 12 WNW 31 0,0
21.04.2018 19:00:00 10,2 5,8 15 8 23 12 WNW 26 0,0
21.04.2018 18:00:00 11,0 5,9 17 9 23 12 W 26 0,0
21.04.2018 17:00:00 11,0 5,9 14 8 24 13 W 36 0,0
21.04.2018 16:00:00 10,8 6,2 14 7 31 17 W 22 0,0
21.04.2018 15:00:00 12,2 6,0 19 11 31 17 WNW 24 0,0
21.04.2018 14:00:00 11,9 6,4 24 13 32 18 W 20 0,0
21.04.2018 13:00:00 11,2 6,7 22 12 - - W 19 0,0
21.04.2018 12:00:00 11,4 6,1 23 13 37 20 WNW 22 0,0
21.04.2018 11:00:00 10,2 6,5 25 14 37 20 WNW 14 0,0
21.04.2018 10:00:00 10,0 6,3 22 12 35 19 WNW 16 0,0
21.04.2018 09:00:00 9,3 6,4 25 13 37 20 WNW 14 0,0
21.04.2018 08:00:00 - - - - - - - - -
21.04.2018 07:00:00 8,3 6,4 31 17 42 23 WNW 15 0,0
21.04.2018 06:00:00 8,3 6,8 29 16 40 22 WNW 12 0,0
21.04.2018 05:00:00 8,3 7,4 25 14 34 19 WNW 10 0,0
21.04.2018 04:00:00 8,5 7,4 27 15 36 19 WNW 9 0,0
21.04.2018 03:00:00 8,6 8,0 25 14 38 21 W 6 0,0
21.04.2018 02:00:00 9,1 8,2 26 14 40 22 WNW 6 0,0
21.04.2018 01:00:00 9,9 8,5 31 17 40 22 WNW 6 0,0
21.04.2018 00:00:00 10,4 8,3 26 14 32 18 W 5 0,0
20.04.2018 23:00:00 9,8 8,2 17 9 29 16 W 4,2 0,0
20.04.2018 22:00:00 - - - - 36 20 - - -
20.04.2018 21:00:00 - - - - 37 20 - - -
20.04.2018 20:00:00 12,7 9,3 27 15 37 20 WSW 7 0,0
20.04.2018 19:00:00 15,3 8,5 23 13 32 17 SSW 13 0,0
20.04.2018 18:00:00 14,6 9,6 15 8 29 16 S 13 0,0
20.04.2018 17:00:00 16,9 10,0 22 12 29 16 S 14 0,0
20.04.2018 16:00:00 18,2 10,1 23 12 32 17 S 18 0,0
20.04.2018 15:00:00 18,6 10,4 17 9 32 17 SSE 18 0,0
20.04.2018 14:00:00 19,5 10,5 23 13 29 16 SSE 20 0,0
20.04.2018 13:00:00 - - - - 32 18 - - -
20.04.2018 12:00:00 - - - - 32 18 - - -
20.04.2018 11:00:00 - - - - 34 19 - - -
20.04.2018 10:00:00 15,8 10,8 23 12 36 19 SSE 16 0,0
20.04.2018 09:00:00 13,8 10,4 23 12 36 19 SSE 11 0,0
20.04.2018 08:00:00 11,8 10,0 23 13 - - SSE 7 0,0
20.04.2018 07:00:00 10,9 10,0 24 13 32 17 SSE 7 0,0
20.04.2018 06:00:00 10,7 9,5 22 12 31 17 SSE 9 0,0
20.04.2018 05:00:00 10,7 8,8 21 11 28 15 SSE 11 0,0
20.04.2018 04:00:00 10,7 9,1 19 10 26 14 SSE 11 0,0
20.04.2018 03:00:00 11,3 9,0 18 10 28 15 SSE 13 0,0
20.04.2018 02:00:00 11,7 9,3 19 10 28 15 SSE 12 0,0
20.04.2018 01:00:00 12,6 9,8 19 10 27 14 SSE 13 0,0
20.04.2018 00:00:00 12,1 9,3 15 8 19 10 SSE 26 0,0
19.04.2018 23:00:00 11,2 9,6 14 7 15 8 SSE 23 0,0
19.04.2018 22:00:00 10,8 10,6 10 5 13 7 SSE 11 0,0
19.04.2018 21:00:00 12,5 9,3 10 5 13 7 E 22 0,0
19.04.2018 20:00:00 - - - - 10 5 - - -
19.04.2018 19:00:00 14,5 10,3 5 3 7 4 ENE 13 0,0
19.04.2018 18:00:00 14,0 10,2 0 0 8 4 N 11 0,0
19.04.2018 17:00:00 14,6 10,4 3 2 10 5 NNW 12 0,0
19.04.2018 16:00:00 15,0 10,6 4 2 10 5 WSW 13 0,0
19.04.2018 15:00:00 12,9 11,0 6 4 10 5 NNE 8 0,0
19.04.2018 14:00:00 13,6 9,8 6 3 9 5 W 10 0,0

tt = Température de l'air
td = dewpoint
ff = Vitesse du vent
fx = gusts
dd = Direction du vent
vv = visibility
rr = Quantités de précipitations

stations d'obs. à proximité